createdAt,value
2018-12-11T00:00:17.407Z,1004.67
2018-12-11T00:01:17.318Z,1004.71
2018-12-11T00:02:17.234Z,1004.71
2018-12-11T00:03:17.160Z,1004.75
2018-12-11T00:04:17.068Z,1004.70
2018-12-11T00:05:16.984Z,1004.73
2018-12-11T00:06:16.892Z,1004.71
2018-12-11T00:07:16.806Z,1004.78
2018-12-11T00:08:16.719Z,1004.77
2018-12-11T00:09:16.643Z,1004.73
2018-12-11T00:10:16.557Z,1004.72
2018-12-11T00:11:16.469Z,1004.72
2018-12-11T00:12:16.381Z,1004.74
2018-12-11T00:13:16.294Z,1004.72
2018-12-11T00:14:16.208Z,1004.72
2018-12-11T00:15:16.132Z,1004.75
2018-12-11T00:16:16.044Z,1004.75
2018-12-11T00:17:15.957Z,1004.73
2018-12-11T00:18:15.869Z,1004.69
2018-12-11T00:19:15.810Z,1004.76
2018-12-11T00:20:15.696Z,1004.72
2018-12-11T00:21:15.623Z,1004.68
2018-12-11T00:22:15.532Z,1004.76
2018-12-11T00:23:15.444Z,1004.76
2018-12-11T00:24:15.358Z,1004.74
2018-12-11T00:25:15.271Z,1004.72
2018-12-11T00:26:15.195Z,1004.70
2018-12-11T00:27:15.113Z,1004.68
2018-12-11T00:28:15.020Z,1004.71
2018-12-11T00:29:14.933Z,1004.71
2018-12-11T00:30:14.858Z,1004.70
2018-12-11T00:31:14.760Z,1004.67
2018-12-11T00:32:14.684Z,1004.71
2018-12-11T00:33:14.647Z,1004.66
2018-12-11T00:34:14.520Z,1004.67
2018-12-11T00:35:14.420Z,1004.71
2018-12-11T00:36:14.334Z,1004.72
2018-12-11T00:37:14.249Z,1004.73
2018-12-11T00:38:14.171Z,1004.66
2018-12-11T00:39:14.086Z,1004.62
2018-12-11T00:40:13.997Z,1004.62
2018-12-11T00:41:13.910Z,1004.61
2018-12-11T00:42:13.822Z,1004.60
2018-12-11T00:43:13.747Z,1004.63
2018-12-11T00:44:13.661Z,1004.54
2018-12-11T00:45:13.572Z,1004.61
2018-12-11T00:46:13.486Z,1004.58
2018-12-11T00:47:13.411Z,1004.64
2018-12-11T00:48:13.322Z,1004.57
2018-12-11T00:49:13.236Z,1004.61
2018-12-11T00:50:13.148Z,1004.67
2018-12-11T00:51:13.060Z,1004.56
2018-12-11T00:52:12.973Z,1004.64
2018-12-11T00:53:12.887Z,1004.56
2018-12-11T00:54:12.811Z,1004.55
2018-12-11T00:55:12.723Z,1004.53
2018-12-11T00:56:12.637Z,1004.60
2018-12-11T00:57:12.548Z,1004.51
2018-12-11T00:58:12.462Z,1004.56
2018-12-11T00:59:12.387Z,1004.51
2018-12-11T01:00:12.304Z,1004.48
2018-12-11T01:01:12.214Z,1004.56
2018-12-11T01:02:12.124Z,1004.58
2018-12-11T01:03:12.037Z,1004.53
2018-12-11T01:04:11.953Z,1004.55
2018-12-11T01:05:11.875Z,1004.53
2018-12-11T01:06:11.788Z,1004.52
2018-12-11T01:07:11.699Z,1004.50
2018-12-11T01:08:11.613Z,1004.53
2018-12-11T01:09:11.531Z,1004.51
2018-12-11T01:10:11.449Z,1004.60
2018-12-11T01:11:11.363Z,1004.59
2018-12-11T01:12:11.275Z,1004.56
2018-12-11T01:13:11.189Z,1004.57
2018-12-11T01:14:11.100Z,1004.66
2018-12-11T01:15:11.014Z,1004.63
2018-12-11T01:16:10.939Z,1004.46
2018-12-11T01:17:10.850Z,1004.56
2018-12-11T01:18:10.764Z,1004.59
2018-12-11T01:19:10.689Z,1004.57
2018-12-11T01:20:10.589Z,1004.59
2018-12-11T01:21:10.502Z,1004.66
2018-12-11T01:22:10.426Z,1004.68
2018-12-11T01:23:10.341Z,1004.62
2018-12-11T01:24:10.251Z,1004.69
2018-12-11T01:25:10.167Z,1004.53
2018-12-11T01:26:10.089Z,1004.58
2018-12-11T01:27:10.001Z,1004.64
2018-12-11T01:28:09.918Z,1004.61
2018-12-11T01:29:09.827Z,1004.59
2018-12-11T01:30:09.740Z,1004.58
2018-12-11T01:31:09.652Z,1004.58
2018-12-11T01:32:09.590Z,1004.56
2018-12-11T01:33:09.490Z,1004.55
2018-12-11T01:34:09.402Z,1004.60
2018-12-11T01:35:09.316Z,1004.57
2018-12-11T01:36:09.228Z,1004.55
2018-12-11T01:37:09.140Z,1004.51
2018-12-11T01:38:09.066Z,1004.56
2018-12-11T01:39:08.977Z,1004.57
2018-12-11T01:40:08.891Z,1004.55
2018-12-11T01:41:08.803Z,1004.62
2018-12-11T01:42:08.717Z,1004.60
2018-12-11T01:43:08.641Z,1004.62
2018-12-11T01:44:08.557Z,1004.66
2018-12-11T01:45:08.467Z,1004.58
2018-12-11T01:46:08.379Z,1004.64
2018-12-11T01:47:08.292Z,1004.63
2018-12-11T01:48:08.217Z,1004.73
2018-12-11T01:49:08.129Z,1004.64
2018-12-11T01:50:08.042Z,1004.65
2018-12-11T01:51:07.955Z,1004.64
2018-12-11T01:52:07.869Z,1004.66
2018-12-11T01:53:07.779Z,1004.64
2018-12-11T01:54:07.704Z,1004.63
2018-12-11T01:55:07.618Z,1004.65
2018-12-11T01:56:07.531Z,1004.60
2018-12-11T01:57:07.443Z,1004.58
2018-12-11T01:58:07.356Z,1004.58
2018-12-11T01:59:07.269Z,1004.57
2018-12-11T02:00:07.194Z,1004.65
2018-12-11T02:01:07.120Z,1004.65
2018-12-11T02:02:07.018Z,1004.68
2018-12-11T02:03:06.932Z,1004.67
2018-12-11T02:04:06.846Z,1004.65
2018-12-11T02:05:06.769Z,1004.71
2018-12-11T02:06:06.681Z,1004.66
2018-12-11T02:07:06.599Z,1004.71
2018-12-11T02:08:06.506Z,1004.75
2018-12-11T02:09:06.420Z,1004.76
2018-12-11T02:10:06.332Z,1004.76
2018-12-11T02:11:06.257Z,1004.75
2018-12-11T02:12:06.170Z,1004.67
2018-12-11T02:13:06.082Z,1004.67
2018-12-11T02:14:05.996Z,1004.68
2018-12-11T02:15:05.908Z,1004.62
2018-12-11T02:16:05.833Z,1004.64
2018-12-11T02:17:05.746Z,1004.60
2018-12-11T02:18:05.658Z,1004.58
2018-12-11T02:19:05.571Z,1004.59
2018-12-11T02:20:05.496Z,1004.56
2018-12-11T02:21:05.396Z,1004.55
2018-12-11T02:22:05.322Z,1004.60
2018-12-11T02:23:05.233Z,1004.55
2018-12-11T02:24:05.158Z,1004.60
2018-12-11T02:25:05.062Z,1004.58
2018-12-11T02:26:04.973Z,1004.58
2018-12-11T02:27:04.897Z,1004.52
2018-12-11T02:28:04.810Z,1004.59
2018-12-11T02:29:04.723Z,1004.62
2018-12-11T02:30:04.642Z,1004.63
2018-12-11T02:31:04.553Z,1004.57
2018-12-11T02:32:04.474Z,1004.63
2018-12-11T02:33:04.393Z,1004.58
2018-12-11T02:34:04.301Z,1004.57
2018-12-11T02:35:04.212Z,1004.61
2018-12-11T02:36:04.124Z,1004.57
2018-12-11T02:37:04.051Z,1004.56
2018-12-11T02:38:03.961Z,1004.53
2018-12-11T02:39:03.878Z,1004.48
2018-12-11T02:40:03.786Z,1004.43
2018-12-11T02:41:03.700Z,1004.47
2018-12-11T02:42:03.611Z,1004.45
2018-12-11T02:43:03.550Z,1004.48
2018-12-11T02:44:03.451Z,1004.46
2018-12-11T02:45:03.362Z,1004.49
2018-12-11T02:46:03.283Z,1004.52
2018-12-11T02:47:03.189Z,1004.48
2018-12-11T02:48:03.113Z,1004.47
2018-12-11T02:49:03.030Z,1004.56
2018-12-11T02:50:02.951Z,1004.51
2018-12-11T02:51:02.862Z,1004.47
2018-12-11T02:52:02.764Z,1004.49
2018-12-11T02:53:02.679Z,1004.43
2018-12-11T02:54:02.604Z,1004.51
2018-12-11T02:55:02.515Z,1004.44
2018-12-11T02:56:02.427Z,1004.51
2018-12-11T02:57:02.347Z,1004.40
2018-12-11T02:58:02.255Z,1004.41
2018-12-11T02:59:02.176Z,1004.45
2018-12-11T03:00:02.090Z,1004.44
2018-12-11T03:01:02.003Z,1004.44
2018-12-11T03:02:01.913Z,1004.53
2018-12-11T03:03:01.829Z,1004.43
2018-12-11T03:04:01.752Z,1004.42
2018-12-11T03:05:01.665Z,1004.42
2018-12-11T03:06:01.579Z,1004.36
2018-12-11T03:07:01.491Z,1004.27
2018-12-11T03:08:01.408Z,1004.42
2018-12-11T03:09:01.317Z,1004.21
2018-12-11T03:10:01.240Z,1004.32
2018-12-11T03:11:01.153Z,1004.38
2018-12-11T03:12:01.065Z,1004.40
2018-12-11T03:13:00.978Z,1004.41
2018-12-11T03:14:00.890Z,1004.47
2018-12-11T03:15:00.816Z,1004.37
2018-12-11T03:16:00.731Z,1004.37
2018-12-11T03:17:00.644Z,1004.38
2018-12-11T03:18:00.562Z,1004.28
2018-12-11T03:19:00.468Z,1004.33
2018-12-11T03:20:00.391Z,1004.30
2018-12-11T03:21:00.305Z,1004.39
2018-12-11T03:22:00.216Z,1004.29
2018-12-11T03:23:00.131Z,1004.30
2018-12-11T03:24:00.052Z,1004.39
2018-12-11T03:24:59.960Z,1004.34
2018-12-11T03:25:59.948Z,1004.37
2018-12-11T03:26:59.801Z,1004.27
2018-12-11T03:27:59.706Z,1004.27
2018-12-11T03:28:59.617Z,1004.31
2018-12-11T03:29:59.531Z,1004.26
2018-12-11T03:30:59.471Z,1004.28
2018-12-11T03:31:59.371Z,1004.39
2018-12-11T03:32:59.293Z,1004.39
2018-12-11T03:33:59.198Z,1004.37
2018-12-11T03:34:59.106Z,1004.32
2018-12-11T03:35:59.031Z,1004.30
2018-12-11T03:36:58.943Z,1004.36
2018-12-11T03:37:58.857Z,1004.31
2018-12-11T03:38:58.768Z,1004.29
2018-12-11T03:39:58.683Z,1004.35
2018-12-11T03:40:58.594Z,1004.39
2018-12-11T03:41:58.532Z,1004.42
2018-12-11T03:42:58.432Z,1004.44
2018-12-11T03:43:58.343Z,1004.32
2018-12-11T03:44:58.263Z,1004.38
2018-12-11T03:45:58.169Z,1004.36
2018-12-11T03:46:58.094Z,1004.47
2018-12-11T03:47:58.007Z,1004.41
2018-12-11T03:48:57.931Z,1004.41
2018-12-11T03:49:57.834Z,1004.37
2018-12-11T03:50:57.746Z,1004.24
2018-12-11T03:51:57.670Z,1004.33
2018-12-11T03:52:57.584Z,1004.33
2018-12-11T03:53:57.495Z,1004.33
2018-12-11T03:54:57.410Z,1004.40
2018-12-11T03:55:57.334Z,1004.37
2018-12-11T03:56:57.246Z,1004.37
2018-12-11T03:57:57.161Z,1004.27
2018-12-11T03:58:57.071Z,1004.26
2018-12-11T03:59:56.988Z,1004.38
2018-12-11T04:00:56.897Z,1004.40
2018-12-11T04:01:56.822Z,1004.33
2018-12-11T04:02:56.735Z,1004.30
2018-12-11T04:03:56.646Z,1004.32
2018-12-11T04:04:56.559Z,1004.35
2018-12-11T04:05:56.472Z,1004.32
2018-12-11T04:06:56.400Z,1004.36
2018-12-11T04:07:56.310Z,1004.27
2018-12-11T04:08:56.222Z,1004.31
2018-12-11T04:09:56.135Z,1004.28
2018-12-11T04:10:56.048Z,1004.28
2018-12-11T04:11:55.974Z,1004.31
2018-12-11T04:12:55.890Z,1004.30
2018-12-11T04:13:55.809Z,1004.27
2018-12-11T04:14:55.712Z,1004.27
2018-12-11T04:15:55.624Z,1004.31
2018-12-11T04:16:55.542Z,1004.32
2018-12-11T04:17:55.460Z,1004.35
2018-12-11T04:18:55.378Z,1004.26
2018-12-11T04:19:55.286Z,1004.33
2018-12-11T04:20:55.201Z,1004.33
2018-12-11T04:21:55.113Z,1004.35
2018-12-11T04:22:55.036Z,1004.27
2018-12-11T04:23:54.952Z,1004.32
2018-12-11T04:24:54.861Z,1004.42
2018-12-11T04:25:54.773Z,1004.36
2018-12-11T04:26:54.688Z,1004.31
2018-12-11T04:27:54.601Z,1004.46
2018-12-11T04:28:54.523Z,1004.41
2018-12-11T04:29:54.438Z,1004.43
2018-12-11T04:30:54.349Z,1004.40
2018-12-11T04:31:54.262Z,1004.39
2018-12-11T04:32:54.174Z,1004.37
2018-12-11T04:33:54.101Z,1004.37
2018-12-11T04:34:54.013Z,1004.45
2018-12-11T04:35:53.926Z,1004.38
2018-12-11T04:36:53.838Z,1004.39
2018-12-11T04:37:53.760Z,1004.38
2018-12-11T04:38:53.662Z,1004.49
2018-12-11T04:39:53.589Z,1004.50
2018-12-11T04:40:53.502Z,1004.53
2018-12-11T04:41:53.416Z,1004.52
2018-12-11T04:42:53.327Z,1004.42
2018-12-11T04:43:53.239Z,1004.42
2018-12-11T04:44:53.151Z,1004.47
2018-12-11T04:45:53.077Z,1004.55
2018-12-11T04:46:52.990Z,1004.55
2018-12-11T04:47:52.914Z,1004.49
2018-12-11T04:48:52.814Z,1004.53
2018-12-11T04:49:52.726Z,1004.55
2018-12-11T04:50:52.641Z,1004.51
2018-12-11T04:51:52.565Z,1004.45
2018-12-11T04:52:52.479Z,1004.53
2018-12-11T04:53:52.390Z,1004.60
2018-12-11T04:54:52.318Z,1004.57
2018-12-11T04:55:52.215Z,1004.53
2018-12-11T04:56:52.127Z,1004.56
2018-12-11T04:57:52.052Z,1004.56
2018-12-11T04:58:51.965Z,1004.51
2018-12-11T04:59:51.877Z,1004.44
2018-12-11T05:00:51.790Z,1004.61
2018-12-11T05:01:51.704Z,1004.61
2018-12-11T05:02:51.615Z,1004.54
2018-12-11T05:03:51.541Z,1004.58
2018-12-11T05:04:51.453Z,1004.59
2018-12-11T05:05:51.368Z,1004.57
2018-12-11T05:06:51.278Z,1004.62
2018-12-11T05:07:51.191Z,1004.56
2018-12-11T05:08:51.103Z,1004.59
2018-12-11T05:09:51.041Z,1004.64
2018-12-11T05:10:50.941Z,1004.66
2018-12-11T05:11:50.854Z,1004.68
2018-12-11T05:12:50.767Z,1004.67
2018-12-11T05:13:51.228Z,1004.71
2018-12-11T05:14:50.591Z,1004.65
2018-12-11T05:15:50.517Z,1004.70
2018-12-11T05:16:50.430Z,1004.69
2018-12-11T05:17:50.345Z,1004.73
2018-12-11T05:18:50.254Z,1004.79
2018-12-11T05:19:50.167Z,1004.70
2018-12-11T05:20:50.079Z,1004.77
2018-12-11T05:21:50.004Z,1004.75
2018-12-11T05:22:49.918Z,1004.74
2018-12-11T05:23:49.832Z,1004.65
2018-12-11T05:24:49.746Z,1004.74
2018-12-11T05:25:49.655Z,1004.77
2018-12-11T05:26:49.568Z,1004.71
2018-12-11T05:27:49.482Z,1004.74
2018-12-11T05:28:49.405Z,1004.82
2018-12-11T05:29:49.320Z,1004.72
2018-12-11T05:30:49.245Z,1004.75
2018-12-11T05:31:49.144Z,1004.70
2018-12-11T05:32:49.068Z,1004.73
2018-12-11T05:33:48.970Z,1004.80
2018-12-11T05:34:48.894Z,1004.77
2018-12-11T05:35:48.806Z,1004.84
2018-12-11T05:36:48.718Z,1004.86
2018-12-11T05:37:48.632Z,1004.86
2018-12-11T05:38:48.544Z,1004.80
2018-12-11T05:39:48.460Z,1004.79
2018-12-11T05:40:48.372Z,1004.85
2018-12-11T05:41:48.295Z,1004.79
2018-12-11T05:42:48.206Z,1004.86
2018-12-11T05:43:48.120Z,1004.85
2018-12-11T05:44:48.032Z,1004.89
2018-12-11T05:45:47.946Z,1004.90
2018-12-11T05:46:47.857Z,1004.84
2018-12-11T05:47:47.783Z,1004.86
2018-12-11T05:48:47.700Z,1004.85
2018-12-11T05:49:47.608Z,1004.85
2018-12-11T05:50:47.521Z,1004.92
2018-12-11T05:51:47.465Z,1004.93
2018-12-11T05:52:47.345Z,1004.92
2018-12-11T05:53:47.260Z,1004.99
2018-12-11T05:54:47.183Z,1004.90
2018-12-11T05:55:47.096Z,1004.91
2018-12-11T05:56:47.008Z,1004.91
2018-12-11T05:57:46.921Z,1004.92
2018-12-11T05:58:46.833Z,1005.00
2018-12-11T05:59:46.748Z,1004.95
2018-12-11T06:00:46.659Z,1004.93
2018-12-11T06:01:46.585Z,1004.99
2018-12-11T06:02:46.499Z,1004.92
2018-12-11T06:03:46.409Z,1005.03
2018-12-11T06:04:46.322Z,1005.02
2018-12-11T06:05:46.234Z,1005.05
2018-12-11T06:06:46.148Z,1004.98
2018-12-11T06:07:46.060Z,1005.02
2018-12-11T06:08:45.984Z,1005.04
2018-12-11T06:09:45.900Z,1005.11
2018-12-11T06:10:45.810Z,1005.09
2018-12-11T06:11:45.725Z,1005.08
2018-12-11T06:12:45.635Z,1005.07
2018-12-11T06:13:45.549Z,1005.14
2018-12-11T06:14:45.463Z,1005.14
2018-12-11T06:15:45.398Z,1005.23
2018-12-11T06:16:45.298Z,1005.09
2018-12-11T06:17:45.214Z,1005.16
2018-12-11T06:18:45.124Z,1005.23
2018-12-11T06:19:45.036Z,1005.23
2018-12-11T06:20:44.953Z,1005.32
2018-12-11T06:21:44.864Z,1005.30
2018-12-11T06:22:44.786Z,1005.33
2018-12-11T06:23:44.699Z,1005.39
2018-12-11T06:24:44.654Z,1005.42
2018-12-11T06:25:44.526Z,1005.40
2018-12-11T06:26:44.436Z,1005.41
2018-12-11T06:27:44.351Z,1005.53
2018-12-11T06:28:44.273Z,1005.54
2018-12-11T06:29:44.204Z,1005.59
2018-12-11T06:30:44.099Z,1005.62
2018-12-11T06:31:44.012Z,1005.66
2018-12-11T06:32:43.928Z,1005.71
2018-12-11T06:33:43.837Z,1005.74
2018-12-11T06:34:43.749Z,1005.75
2018-12-11T06:35:43.676Z,1005.79
2018-12-11T06:36:43.600Z,1005.81
2018-12-11T06:37:43.502Z,1005.73
2018-12-11T06:38:43.411Z,1005.73
2018-12-11T06:39:43.331Z,1005.76
2018-12-11T06:40:43.238Z,1005.76
2018-12-11T06:41:43.150Z,1005.75
2018-12-11T06:42:43.081Z,1005.78
2018-12-11T06:43:43.000Z,1005.81
2018-12-11T06:44:42.901Z,1005.85
2018-12-11T06:45:42.813Z,1005.85
2018-12-11T06:46:42.733Z,1005.85
2018-12-11T06:47:42.637Z,1005.89
2018-12-11T06:48:42.551Z,1005.84
2018-12-11T06:49:42.463Z,1005.92
2018-12-11T06:50:42.390Z,1005.86
2018-12-11T06:51:42.305Z,1005.91
2018-12-11T06:52:42.213Z,1005.95
2018-12-11T06:53:42.126Z,1005.89
2018-12-11T06:54:42.038Z,1006.00
2018-12-11T06:55:41.953Z,1005.97
2018-12-11T06:56:41.865Z,1005.95
2018-12-11T06:57:41.788Z,1006.00
2018-12-11T06:58:41.703Z,1006.06
2018-12-11T06:59:41.615Z,1005.96
2018-12-11T07:00:41.527Z,1006.03
2018-12-11T07:01:41.438Z,1006.09
2018-12-11T07:02:41.354Z,1006.05
2018-12-11T07:03:41.264Z,1006.09
2018-12-11T07:04:41.180Z,1006.10
2018-12-11T07:05:41.104Z,1006.16
2018-12-11T07:06:41.015Z,1006.15
2018-12-11T07:07:40.928Z,1006.12
2018-12-11T07:08:40.856Z,1006.12
2018-12-11T07:09:40.753Z,1006.14
2018-12-11T07:10:40.665Z,1006.15
2018-12-11T07:11:40.580Z,1006.17
2018-12-11T07:12:40.503Z,1006.15
2018-12-11T07:13:40.415Z,1006.12
2018-12-11T07:14:40.334Z,1006.13
2018-12-11T07:15:40.253Z,1006.13
2018-12-11T07:16:40.153Z,1006.16
2018-12-11T07:17:40.065Z,1006.15
2018-12-11T07:18:39.980Z,1006.14
2018-12-11T07:19:39.904Z,1006.16
2018-12-11T07:20:39.816Z,1006.19
2018-12-11T07:21:39.730Z,1006.24
2018-12-11T07:22:39.653Z,1006.25
2018-12-11T07:23:39.554Z,1006.26
2018-12-11T07:24:39.466Z,1006.33
2018-12-11T07:25:39.379Z,1006.34
2018-12-11T07:26:39.293Z,1006.25
2018-12-11T07:27:39.216Z,1006.36
2018-12-11T07:28:39.130Z,1006.28
2018-12-11T07:29:39.054Z,1006.39
2018-12-11T07:30:38.955Z,1006.40
2018-12-11T07:31:38.867Z,1006.42
2018-12-11T07:32:38.779Z,1006.40
2018-12-11T07:33:38.692Z,1006.42
2018-12-11T07:34:38.619Z,1006.51
2018-12-11T07:35:38.531Z,1006.47
2018-12-11T07:36:38.455Z,1006.48
2018-12-11T07:37:38.355Z,1006.53
2018-12-11T07:38:38.267Z,1006.51
2018-12-11T07:39:38.182Z,1006.53
2018-12-11T07:40:38.094Z,1006.60
2018-12-11T07:41:38.018Z,1006.59
2018-12-11T07:42:37.931Z,1006.64
2018-12-11T07:43:37.843Z,1006.68
2018-12-11T07:44:37.756Z,1006.63
2018-12-11T07:45:37.667Z,1006.65
2018-12-11T07:46:37.581Z,1006.68
2018-12-11T07:47:37.493Z,1006.68
2018-12-11T07:48:37.418Z,1006.68
2018-12-11T07:49:37.333Z,1006.73
2018-12-11T07:50:37.245Z,1006.77
2018-12-11T07:51:37.157Z,1006.78
2018-12-11T07:52:37.070Z,1006.71
2018-12-11T07:53:36.983Z,1006.73
2018-12-11T07:54:36.895Z,1006.72
2018-12-11T07:55:36.820Z,1006.73
2018-12-11T07:56:36.732Z,1006.77
2018-12-11T07:57:36.644Z,1006.74
2018-12-11T07:58:36.563Z,1006.78
2018-12-11T07:59:36.469Z,1006.79
2018-12-11T08:00:36.383Z,1006.78
2018-12-11T08:01:36.296Z,1006.82
2018-12-11T08:02:36.220Z,1006.85
2018-12-11T08:03:36.133Z,1006.74
2018-12-11T08:04:36.044Z,1006.78
2018-12-11T08:05:35.959Z,1006.83
2018-12-11T08:06:35.870Z,1006.80
2018-12-11T08:07:35.797Z,1006.87
2018-12-11T08:08:35.708Z,1006.85
2018-12-11T08:09:35.620Z,1006.86
2018-12-11T08:10:35.536Z,1006.81
2018-12-11T08:11:35.446Z,1006.86
2018-12-11T08:12:35.358Z,1006.86
2018-12-11T08:13:35.271Z,1006.92
2018-12-11T08:14:35.197Z,1006.88
2018-12-11T08:15:35.109Z,1006.95
2018-12-11T08:16:35.021Z,1006.90
2018-12-11T08:17:34.934Z,1006.92
2018-12-11T08:18:34.847Z,1006.91
2018-12-11T08:19:34.760Z,1006.95
2018-12-11T08:20:34.685Z,1006.95
2018-12-11T08:21:34.610Z,1006.94
2018-12-11T08:22:34.509Z,1006.97
2018-12-11T08:23:34.421Z,1007.01
2018-12-11T08:24:34.340Z,1006.96
2018-12-11T08:25:34.247Z,1007.03
2018-12-11T08:26:34.172Z,1007.03
2018-12-11T08:27:34.086Z,1007.00
2018-12-11T08:28:34.001Z,1006.98
2018-12-11T08:29:33.912Z,1007.07
2018-12-11T08:30:33.822Z,1007.07
2018-12-11T08:31:33.747Z,1007.16
2018-12-11T08:32:33.661Z,1007.16
2018-12-11T08:33:33.594Z,1007.11
2018-12-11T08:34:33.487Z,1007.16
2018-12-11T08:35:33.398Z,1007.16
2018-12-11T08:36:33.313Z,1007.18
2018-12-11T08:37:33.239Z,1007.22
2018-12-11T08:38:33.209Z,1007.28
2018-12-11T08:39:33.062Z,1007.22
2018-12-11T08:40:32.976Z,1007.20
2018-12-11T08:41:32.898Z,1007.31
2018-12-11T08:42:32.799Z,1007.26
2018-12-11T08:43:32.724Z,1007.32
2018-12-11T08:44:32.637Z,1007.37
2018-12-11T08:45:32.549Z,1007.39
2018-12-11T08:46:32.465Z,1007.43
2018-12-11T08:47:32.375Z,1007.42
2018-12-11T08:48:32.288Z,1007.44
2018-12-11T08:49:32.213Z,1007.43
2018-12-11T08:50:32.125Z,1007.39
2018-12-11T08:51:32.038Z,1007.46
2018-12-11T08:52:31.950Z,1007.48
2018-12-11T08:53:31.866Z,1007.49
2018-12-11T08:54:31.788Z,1007.50
2018-12-11T08:55:31.700Z,1007.47
2018-12-11T08:56:31.614Z,1007.53
2018-12-11T08:57:31.526Z,1007.58
2018-12-11T08:58:31.439Z,1007.59
2018-12-11T08:59:31.352Z,1007.60
2018-12-11T09:00:31.291Z,1007.61
2018-12-11T09:01:31.189Z,1007.59
2018-12-11T09:02:31.105Z,1007.61
2018-12-11T09:03:31.015Z,1007.59
2018-12-11T09:04:30.927Z,1007.61
2018-12-11T09:05:30.854Z,1007.65
2018-12-11T09:06:30.765Z,1007.67
2018-12-11T09:07:30.677Z,1007.63
2018-12-11T09:08:30.590Z,1007.65
2018-12-11T09:09:30.505Z,1007.66
2018-12-11T09:10:30.418Z,1007.72
2018-12-11T09:11:30.354Z,1007.74
2018-12-11T09:12:30.253Z,1007.70
2018-12-11T09:13:30.168Z,1007.79
2018-12-11T09:14:30.077Z,1007.78
2018-12-11T09:15:29.991Z,1007.81
2018-12-11T09:16:29.906Z,1007.80
2018-12-11T09:17:29.828Z,1007.84
2018-12-11T09:18:29.742Z,1007.82
2018-12-11T09:19:29.653Z,1007.82
2018-12-11T09:20:29.567Z,1007.80
2018-12-11T09:21:29.494Z,1007.82
2018-12-11T09:22:29.406Z,1007.86
2018-12-11T09:23:29.317Z,1007.85
2018-12-11T09:24:29.229Z,1007.90
2018-12-11T09:25:29.144Z,1007.89
2018-12-11T09:26:29.054Z,1007.86
2018-12-11T09:27:28.968Z,1007.90
2018-12-11T09:28:28.900Z,1007.91
2018-12-11T09:29:28.805Z,1007.92
2018-12-11T09:30:28.719Z,1007.89
2018-12-11T09:31:28.630Z,1007.92
2018-12-11T09:32:28.545Z,1007.96
2018-12-11T09:33:28.456Z,1007.94
2018-12-11T09:34:28.381Z,1007.91
2018-12-11T09:35:28.295Z,1007.97
2018-12-11T09:36:28.205Z,1008.01
2018-12-11T09:37:28.118Z,1008.02
2018-12-11T09:38:28.030Z,1007.99
2018-12-11T09:39:27.956Z,1008.03
2018-12-11T09:40:27.869Z,1008.06
2018-12-11T09:41:27.794Z,1008.06
2018-12-11T09:42:28.050Z,1008.09
2018-12-11T09:43:27.606Z,1008.04
2018-12-11T09:44:27.520Z,1008.13
2018-12-11T09:45:27.444Z,1008.09
2018-12-11T09:46:27.356Z,1008.07
2018-12-11T09:47:27.269Z,1008.12
2018-12-11T09:48:27.182Z,1008.11
2018-12-11T09:49:27.096Z,1008.14
2018-12-11T09:50:27.007Z,1008.15
2018-12-11T09:51:26.920Z,1008.14
2018-12-11T09:52:26.845Z,1008.16
2018-12-11T09:53:26.759Z,1008.14
2018-12-11T09:54:26.671Z,1008.17
2018-12-11T09:55:26.582Z,1008.22
2018-12-11T09:56:26.544Z,1008.20
2018-12-11T09:57:26.408Z,1008.20
2018-12-11T09:58:26.322Z,1008.22
2018-12-11T09:59:26.250Z,1008.18
2018-12-11T10:00:27.470Z,1008.24
2018-12-11T10:01:26.073Z,1008.25
2018-12-11T10:02:25.983Z,1008.26
2018-12-11T10:03:25.932Z,1008.27
2018-12-11T10:04:25.810Z,1008.24
2018-12-11T10:05:25.721Z,1008.32
2018-12-11T10:06:25.634Z,1008.31
2018-12-11T10:07:25.558Z,1008.32
2018-12-11T10:08:25.472Z,1008.38
2018-12-11T10:09:25.396Z,1008.36
2018-12-11T10:10:25.297Z,1008.34
2018-12-11T10:11:25.209Z,1008.32
2018-12-11T10:12:25.122Z,1008.38
2018-12-11T10:13:25.035Z,1008.42
2018-12-11T10:14:24.948Z,1008.44
2018-12-11T10:15:24.876Z,1008.40
2018-12-11T10:16:24.797Z,1008.45
2018-12-11T10:17:24.698Z,1008.44
2018-12-11T10:18:24.610Z,1008.44
2018-12-11T10:19:24.523Z,1008.41
2018-12-11T10:20:24.435Z,1008.44
2018-12-11T10:21:24.350Z,1008.44
2018-12-11T10:22:24.261Z,1008.51
2018-12-11T10:23:24.186Z,1008.46
2018-12-11T10:24:24.099Z,1008.49
2018-12-11T10:25:24.010Z,1008.51
2018-12-11T10:26:23.925Z,1008.48
2018-12-11T10:27:23.836Z,1008.54
2018-12-11T10:28:23.749Z,1008.52
2018-12-11T10:29:23.662Z,1008.49
2018-12-11T10:30:23.574Z,1008.52
2018-12-11T10:31:23.487Z,1008.50
2018-12-11T10:32:23.400Z,1008.54
2018-12-11T10:33:23.326Z,1008.53
2018-12-11T10:34:23.250Z,1008.54
2018-12-11T10:35:23.150Z,1008.55
2018-12-11T10:36:23.062Z,1008.55
2018-12-11T10:37:22.976Z,1008.56
2018-12-11T10:38:22.887Z,1008.58
2018-12-11T10:39:22.800Z,1008.61
2018-12-11T10:40:22.713Z,1008.62
2018-12-11T10:41:22.639Z,1008.60
2018-12-11T10:42:22.551Z,1008.61
2018-12-11T10:43:22.476Z,1008.63
2018-12-11T10:44:22.376Z,1008.60
2018-12-11T10:45:22.290Z,1008.60
2018-12-11T10:46:22.202Z,1008.64
2018-12-11T10:47:22.139Z,1008.60
2018-12-11T10:48:22.026Z,1008.60
2018-12-11T10:49:21.938Z,1008.58
2018-12-11T10:50:21.863Z,1008.59
2018-12-11T10:51:21.776Z,1008.64
2018-12-11T10:52:21.688Z,1008.66
2018-12-11T10:53:21.602Z,1008.72
2018-12-11T10:54:21.514Z,1008.73
2018-12-11T10:55:21.426Z,1008.72
2018-12-11T10:56:21.340Z,1008.68
2018-12-11T10:57:21.259Z,1008.75
2018-12-11T10:58:21.165Z,1008.70
2018-12-11T10:59:21.089Z,1008.70
2018-12-11T11:00:21.006Z,1008.69
2018-12-11T11:01:20.930Z,1008.74
2018-12-11T11:02:20.828Z,1008.77
2018-12-11T11:03:20.744Z,1008.75
2018-12-11T11:04:20.658Z,1008.78
2018-12-11T11:05:20.565Z,1008.75
2018-12-11T11:06:20.480Z,1008.83
2018-12-11T11:07:20.392Z,1008.81
2018-12-11T11:08:20.329Z,1008.80
2018-12-11T11:09:20.229Z,1008.84
2018-12-11T11:10:20.159Z,1008.83
2018-12-11T11:11:20.090Z,1008.84
2018-12-11T11:12:19.967Z,1008.85
2018-12-11T11:13:19.883Z,1008.84
2018-12-11T11:14:19.792Z,1008.81
2018-12-11T11:15:19.744Z,1008.88
2018-12-11T11:16:19.617Z,1008.88
2018-12-11T11:17:19.554Z,1008.91
2018-12-11T11:18:19.454Z,1008.89
2018-12-11T11:19:19.369Z,1008.94
2018-12-11T11:20:19.280Z,1008.92
2018-12-11T11:21:19.193Z,1008.95
2018-12-11T11:22:19.117Z,1008.95
2018-12-11T11:23:19.017Z,1008.96
2018-12-11T11:24:18.944Z,1008.95
2018-12-11T11:25:18.856Z,1008.98
2018-12-11T11:26:18.768Z,1008.97
2018-12-11T11:27:18.681Z,1008.98
2018-12-11T11:28:18.593Z,1008.99
2018-12-11T11:29:18.508Z,1009.00
2018-12-11T11:30:18.419Z,1009.01
2018-12-11T11:31:18.331Z,1009.04
2018-12-11T11:32:18.245Z,1009.06
2018-12-11T11:33:18.157Z,1009.08
2018-12-11T11:34:18.082Z,1009.01
2018-12-11T11:35:18.006Z,1009.07
2018-12-11T11:36:17.906Z,1009.09
2018-12-11T11:37:17.819Z,1009.10
2018-12-11T11:38:17.734Z,1009.08
2018-12-11T11:39:17.652Z,1009.11
2018-12-11T11:40:17.558Z,1009.14
2018-12-11T11:41:17.469Z,1009.13
2018-12-11T11:42:17.397Z,1009.15
2018-12-11T11:43:17.308Z,1009.11
2018-12-11T11:44:17.220Z,1009.10
2018-12-11T11:45:17.139Z,1009.11
2018-12-11T11:46:17.045Z,1009.14
2018-12-11T11:47:16.958Z,1009.10
2018-12-11T11:48:16.871Z,1009.15
2018-12-11T11:49:16.796Z,1009.17
2018-12-11T11:50:16.700Z,1009.16
2018-12-11T11:51:16.634Z,1009.17
2018-12-11T11:52:16.534Z,1009.23
2018-12-11T11:53:16.446Z,1009.16
2018-12-11T11:54:16.360Z,1009.14
2018-12-11T11:55:16.271Z,1009.19
2018-12-11T11:56:16.196Z,1009.18
2018-12-11T11:57:16.097Z,1009.17
2018-12-11T11:58:16.010Z,1009.13
2018-12-11T11:59:15.935Z,1009.16
2018-12-11T12:00:15.847Z,1009.16
2018-12-11T12:01:15.762Z,1009.14
2018-12-11T12:02:15.686Z,1009.26
2018-12-11T12:03:15.586Z,1009.22
2018-12-11T12:04:15.498Z,1009.23